createdAt,value
2019-05-23T00:01:16.159Z,40.60
2019-05-23T00:03:27.378Z,40.54
2019-05-23T00:05:44.649Z,41.12
2019-05-23T00:07:53.790Z,40.88
2019-05-23T00:10:06.009Z,41.02
2019-05-23T00:12:32.618Z,40.53
2019-05-23T00:14:51.339Z,40.51
2019-05-23T00:16:58.953Z,40.54
2019-05-23T00:19:07.486Z,40.87
2019-05-23T00:21:16.383Z,40.53
2019-05-23T00:23:23.755Z,40.66
2019-05-23T00:25:35.355Z,40.71
2019-05-23T00:27:44.316Z,40.43
2019-05-23T00:29:53.754Z,40.68
2019-05-23T00:32:18.907Z,40.95
2019-05-23T00:34:27.284Z,40.27
2019-05-23T00:36:36.156Z,40.67
2019-05-23T00:38:44.646Z,40.82
2019-05-23T00:40:53.364Z,41.14
2019-05-23T00:43:03.045Z,41.10
2019-05-23T00:45:13.244Z,41.47
2019-05-23T00:47:20.717Z,42.09
2019-05-23T00:49:29.675Z,42.57
2019-05-23T00:51:37.716Z,42.99
2019-05-23T00:53:45.872Z,42.08
2019-05-23T00:55:54.226Z,41.32
2019-05-23T00:58:03.424Z,40.31
2019-05-23T01:00:13.482Z,39.96
2019-05-23T01:02:21.637Z,38.98
2019-05-23T01:04:30.375Z,38.44
2019-05-23T01:06:39.058Z,38.27
2019-05-23T01:08:48.301Z,37.90
2019-05-23T01:10:57.007Z,37.90
2019-05-23T01:13:04.625Z,37.71
2019-05-23T01:15:12.833Z,37.65
2019-05-23T01:17:22.356Z,37.78
2019-05-23T01:19:30.332Z,37.57
2019-05-23T01:22:02.851Z,37.07
2019-05-23T01:24:17.478Z,36.90
2019-05-23T01:26:25.709Z,37.16
2019-05-23T01:28:34.466Z,37.06
2019-05-23T01:30:45.272Z,36.95
2019-05-23T01:32:55.476Z,36.75
2019-05-23T01:35:05.133Z,36.79
2019-05-23T01:37:14.166Z,36.93
2019-05-23T01:39:21.572Z,37.84
2019-05-23T01:41:31.092Z,36.86
2019-05-23T01:43:39.542Z,36.60
2019-05-23T01:45:47.910Z,36.32
2019-05-23T01:47:55.367Z,35.97
2019-05-23T01:50:03.157Z,36.02
2019-05-23T01:52:12.176Z,36.27
2019-05-23T01:54:21.697Z,36.89
2019-05-23T01:56:30.119Z,37.05
2019-05-23T01:58:37.021Z,36.58
2019-05-23T02:00:44.938Z,36.54
2019-05-23T02:02:52.937Z,36.58
2019-05-23T02:05:01.173Z,36.47
2019-05-23T02:07:10.226Z,36.50
2019-05-23T02:09:17.411Z,36.54
2019-05-23T02:11:26.872Z,36.45
2019-05-23T02:13:34.273Z,36.10
2019-05-23T02:15:42.202Z,36.28
2019-05-23T02:17:49.525Z,36.34
2019-05-23T02:19:57.326Z,36.14
2019-05-23T02:22:05.020Z,36.18
2019-05-23T02:24:13.951Z,36.07
2019-05-23T02:26:24.142Z,35.89
2019-05-23T02:28:33.514Z,36.00
2019-05-23T02:30:40.836Z,35.93
2019-05-23T02:32:49.779Z,35.86
2019-05-23T02:34:57.037Z,35.79
2019-05-23T02:37:06.100Z,35.90
2019-05-23T02:39:44.123Z,36.10
2019-05-23T02:42:01.873Z,36.65
2019-05-23T02:44:13.282Z,36.95
2019-05-23T02:46:35.976Z,38.87
2019-05-23T02:48:44.620Z,39.28
2019-05-23T02:50:56.285Z,39.59
2019-05-23T02:53:04.045Z,39.53
2019-05-23T02:55:15.777Z,39.77
2019-05-23T02:57:27.263Z,39.01
2019-05-23T02:59:48.787Z,37.95
2019-05-23T03:02:32.935Z,37.71
2019-05-23T03:04:41.149Z,37.24
2019-05-23T03:06:49.817Z,36.82
2019-05-23T03:08:59.521Z,37.57
2019-05-23T03:11:46.303Z,36.94
2019-05-23T03:13:55.082Z,36.90
2019-05-23T03:16:04.120Z,36.89
2019-05-23T03:18:14.213Z,36.97
2019-05-23T03:20:22.595Z,36.90
2019-05-23T03:22:37.771Z,36.94
2019-05-23T03:24:45.755Z,36.87
2019-05-23T03:27:16.167Z,36.97
2019-05-23T03:29:24.238Z,36.96
2019-05-23T03:31:47.462Z,37.01
2019-05-23T03:33:56.393Z,37.23
2019-05-23T03:36:05.096Z,36.75
2019-05-23T03:38:13.326Z,36.71
2019-05-23T03:40:21.144Z,36.59
2019-05-23T03:42:29.613Z,36.76
2019-05-23T03:44:39.374Z,36.92
2019-05-23T03:46:50.336Z,37.26
2019-05-23T03:48:59.804Z,37.29
2019-05-23T03:51:10.023Z,37.54
2019-05-23T03:53:19.590Z,37.44
2019-05-23T03:55:28.714Z,37.52
2019-05-23T03:57:37.380Z,37.31
2019-05-23T03:59:47.002Z,37.31
2019-05-23T04:01:55.589Z,37.29
2019-05-23T04:04:05.102Z,37.21
2019-05-23T04:06:13.302Z,37.08
2019-05-23T04:08:21.277Z,37.00
2019-05-23T04:10:30.173Z,36.99
2019-05-23T04:12:38.584Z,36.95
2019-05-23T04:14:46.317Z,36.92
2019-05-23T04:16:54.499Z,36.86
2019-05-23T04:19:01.651Z,36.82
2019-05-23T04:21:09.182Z,36.85
2019-05-23T04:23:17.259Z,36.61
2019-05-23T04:25:25.872Z,36.64
2019-05-23T04:27:33.610Z,36.82
2019-05-23T04:29:40.736Z,36.80
2019-05-23T04:32:06.373Z,36.84
2019-05-23T04:33:57.913Z,36.96
2019-05-23T04:36:06.344Z,36.90
2019-05-23T04:38:14.075Z,36.92
2019-05-23T04:40:22.076Z,36.95
2019-05-23T04:42:30.002Z,37.06
2019-05-23T04:44:38.107Z,37.35
2019-05-23T04:46:46.949Z,37.74
2019-05-23T04:48:54.243Z,37.32
2019-05-23T04:51:02.108Z,37.46
2019-05-23T04:53:11.052Z,37.68
2019-05-23T04:55:19.631Z,37.05
2019-05-23T04:57:28.108Z,37.20
2019-05-23T04:59:36.605Z,37.26
2019-05-23T05:01:44.129Z,37.03
2019-05-23T05:03:52.683Z,37.04
2019-05-23T05:06:01.808Z,37.19
2019-05-23T05:08:10.241Z,37.07
2019-05-23T05:10:20.381Z,37.13
2019-05-23T05:12:28.192Z,37.26
2019-05-23T05:14:35.932Z,37.24
2019-05-23T05:16:44.122Z,37.36
2019-05-23T05:18:55.058Z,37.29
2019-05-23T05:21:01.782Z,37.18
2019-05-23T05:23:10.157Z,37.43
2019-05-23T05:25:19.533Z,37.24
2019-05-23T05:27:27.496Z,37.14
2019-05-23T05:29:34.702Z,37.12
2019-05-23T05:31:42.006Z,37.05
2019-05-23T05:33:49.452Z,36.97
2019-05-23T05:35:57.697Z,36.99
2019-05-23T05:38:06.218Z,37.13
2019-05-23T05:40:15.453Z,37.06
2019-05-23T05:42:22.836Z,36.96
2019-05-23T05:44:30.808Z,36.62
2019-05-23T05:46:38.536Z,36.34
2019-05-23T05:48:46.385Z,36.19
2019-05-23T05:50:54.863Z,35.95
2019-05-23T05:53:03.025Z,36.13
2019-05-23T05:55:11.064Z,35.94
2019-05-23T05:57:18.698Z,35.83
2019-05-23T05:59:25.956Z,35.75
2019-05-23T06:01:34.660Z,35.61
2019-05-23T06:03:43.218Z,35.59
2019-05-23T06:05:58.119Z,35.36
2019-05-23T06:08:07.159Z,35.34
2019-05-23T06:10:17.016Z,35.66
2019-05-23T06:12:24.461Z,36.63
2019-05-23T06:14:33.078Z,36.22
2019-05-23T06:16:41.738Z,36.15
2019-05-23T06:18:49.275Z,36.19
2019-05-23T06:20:57.481Z,35.99
2019-05-23T06:23:05.044Z,36.07
2019-05-23T06:25:13.423Z,35.87
2019-05-23T06:27:23.029Z,35.72
2019-05-23T06:29:30.251Z,35.77
2019-05-23T06:31:38.321Z,35.74
2019-05-23T06:33:46.543Z,36.11
2019-05-23T06:35:53.867Z,36.22
2019-05-23T06:38:01.755Z,36.32
2019-05-23T06:40:09.798Z,36.55
2019-05-23T06:42:18.580Z,36.45
2019-05-23T06:44:26.304Z,36.47
2019-05-23T06:46:33.472Z,36.51
2019-05-23T06:48:45.531Z,36.73
2019-05-23T06:50:50.215Z,36.71
2019-05-23T06:52:57.571Z,37.01
2019-05-23T06:55:04.983Z,36.95
2019-05-23T06:57:12.924Z,36.81
2019-05-23T06:59:20.622Z,37.47
2019-05-23T07:01:27.723Z,38.36
2019-05-23T07:03:42.327Z,39.22
2019-05-23T07:05:44.463Z,39.44
2019-05-23T07:07:51.638Z,39.15
2019-05-23T07:10:00.668Z,39.12
2019-05-23T07:12:09.667Z,39.20
2019-05-23T07:14:17.468Z,39.17
2019-05-23T07:16:24.726Z,38.59
2019-05-23T07:18:33.290Z,38.18
2019-05-23T07:20:40.586Z,38.02
2019-05-23T07:22:47.972Z,37.83
2019-05-23T07:24:58.775Z,37.79
2019-05-23T07:27:04.597Z,37.75
2019-05-23T07:29:13.420Z,37.81
2019-05-23T07:31:21.886Z,37.92
2019-05-23T07:33:29.243Z,37.85
2019-05-23T07:35:36.695Z,37.87
2019-05-23T07:37:44.104Z,37.96
2019-05-23T07:39:51.243Z,37.96
2019-05-23T07:41:58.349Z,37.95
2019-05-23T07:44:06.283Z,38.00
2019-05-23T07:46:13.573Z,38.04
2019-05-23T07:48:21.294Z,37.83
2019-05-23T07:50:28.610Z,37.54
2019-05-23T07:52:37.094Z,37.34
2019-05-23T07:55:03.065Z,37.16
2019-05-23T07:57:13.828Z,37.04
2019-05-23T07:59:21.319Z,36.93
2019-05-23T08:01:30.758Z,37.22
2019-05-23T08:03:39.130Z,37.32
2019-05-23T08:05:48.076Z,37.63
2019-05-23T08:07:56.569Z,37.72
2019-05-23T08:10:03.843Z,37.86
2019-05-23T08:12:11.267Z,38.03
2019-05-23T08:14:18.542Z,38.32
2019-05-23T08:16:26.660Z,38.09
2019-05-23T08:18:33.851Z,37.92
2019-05-23T08:20:40.890Z,37.83
2019-05-23T08:22:48.987Z,37.53
2019-05-23T08:24:56.722Z,37.36
2019-05-23T08:27:05.812Z,37.25
2019-05-23T08:29:25.429Z,37.14
2019-05-23T08:31:22.632Z,37.04
2019-05-23T08:33:29.949Z,37.24
2019-05-23T08:35:37.797Z,37.44
2019-05-23T08:37:45.417Z,37.51
2019-05-23T08:39:52.938Z,37.45
2019-05-23T08:42:00.795Z,37.55
2019-05-23T08:44:11.382Z,37.58
2019-05-23T08:46:17.449Z,37.57
2019-05-23T08:48:25.353Z,37.47
2019-05-23T08:50:32.481Z,37.65
2019-05-23T08:52:39.650Z,37.67
2019-05-23T08:54:46.932Z,37.51
2019-05-23T08:56:54.489Z,37.85
2019-05-23T08:59:02.013Z,38.02
2019-05-23T09:01:09.872Z,37.87
2019-05-23T09:03:18.148Z,37.72
2019-05-23T09:05:26.803Z,38.19
2019-05-23T09:07:34.337Z,37.69
2019-05-23T09:09:42.104Z,37.71
2019-05-23T09:11:49.607Z,37.46
2019-05-23T09:13:57.223Z,37.26
2019-05-23T09:16:04.667Z,37.33
2019-05-23T09:18:12.580Z,37.37
2019-05-23T09:20:20.045Z,37.20
2019-05-23T09:22:27.397Z,37.21
2019-05-23T09:24:34.574Z,37.26
2019-05-23T09:26:42.038Z,37.31
2019-05-23T09:28:49.054Z,37.30
2019-05-23T09:30:56.323Z,37.26
2019-05-23T09:33:04.497Z,37.44
2019-05-23T09:35:20.939Z,37.34
2019-05-23T09:37:21.767Z,37.41
2019-05-23T09:39:29.057Z,37.43
2019-05-23T09:41:36.913Z,37.44
2019-05-23T09:43:44.900Z,37.57
2019-05-23T09:45:52.804Z,37.81
2019-05-23T09:48:01.002Z,37.42
2019-05-23T09:50:11.006Z,37.27
2019-05-23T09:52:18.433Z,37.04
2019-05-23T09:54:26.154Z,36.83
2019-05-23T09:56:33.498Z,36.78
2019-05-23T09:58:41.411Z,36.67
2019-05-23T10:00:48.718Z,36.82
2019-05-23T10:02:57.164Z,36.88
2019-05-23T10:05:04.352Z,37.11
2019-05-23T10:07:11.761Z,37.17
2019-05-23T10:09:19.069Z,37.21
2019-05-23T10:11:26.888Z,37.34
2019-05-23T10:13:39.176Z,37.36
2019-05-23T10:16:17.592Z,37.59
2019-05-23T10:18:25.339Z,37.75
2019-05-23T10:20:36.536Z,37.83
2019-05-23T10:22:43.825Z,37.72
2019-05-23T10:24:51.842Z,37.99
2019-05-23T10:26:59.366Z,37.77
2019-05-23T10:29:06.846Z,37.81
2019-05-23T10:31:15.231Z,37.73
2019-05-23T10:33:23.311Z,37.59
2019-05-23T10:35:31.413Z,37.63
2019-05-23T10:37:38.796Z,37.72
2019-05-23T10:39:49.408Z,37.75
2019-05-23T10:41:57.777Z,37.69
2019-05-23T10:44:05.478Z,37.72
2019-05-23T10:46:13.184Z,37.76
2019-05-23T10:48:21.771Z,37.76
2019-05-23T10:50:43.738Z,37.82
2019-05-23T10:52:39.740Z,37.86
2019-05-23T10:54:46.863Z,38.06
2019-05-23T10:56:54.090Z,38.26
2019-05-23T10:59:01.270Z,38.41
2019-05-23T11:01:09.404Z,38.72
2019-05-23T11:03:17.551Z,38.72
2019-05-23T11:05:25.765Z,38.51
2019-05-23T11:07:34.077Z,38.59
2019-05-23T11:09:41.451Z,38.71
2019-05-23T11:11:48.670Z,38.58
2019-05-23T11:13:57.383Z,38.73
2019-05-23T11:16:04.806Z,38.91
2019-05-23T11:18:12.441Z,38.69
2019-05-23T11:20:20.924Z,38.87
2019-05-23T11:22:28.900Z,38.62
2019-05-23T11:24:36.536Z,38.18
2019-05-23T11:26:43.718Z,37.87
2019-05-23T11:28:50.973Z,37.51
2019-05-23T11:31:00.270Z,37.18
2019-05-23T11:33:07.572Z,36.99
2019-05-23T11:35:16.650Z,36.59
2019-05-23T11:37:25.256Z,36.49
2019-05-23T11:39:33.688Z,36.18
2019-05-23T11:41:41.142Z,36.02
2019-05-23T11:43:49.854Z,36.03
2019-05-23T11:46:11.229Z,35.89
2019-05-23T11:48:19.334Z,36.08
2019-05-23T11:50:26.604Z,36.41
2019-05-23T11:52:33.920Z,36.54
2019-05-23T11:54:41.571Z,36.83
2019-05-23T11:56:49.389Z,37.17
2019-05-23T11:59:00.928Z,37.26
2019-05-23T12:01:23.971Z,37.34
2019-05-23T12:03:31.173Z,37.49
2019-05-23T12:05:39.114Z,37.57
2019-05-23T12:07:47.145Z,37.62
2019-05-23T12:09:54.626Z,37.70
2019-05-23T12:12:01.840Z,37.76
2019-05-23T12:14:10.008Z,37.87
2019-05-23T12:16:17.726Z,37.96
2019-05-23T12:18:24.969Z,38.01
2019-05-23T12:20:32.278Z,38.09
2019-05-23T12:22:40.484Z,38.08
2019-05-23T12:24:48.049Z,38.02
2019-05-23T12:26:55.824Z,38.05
2019-05-23T12:29:03.304Z,38.12
2019-05-23T12:31:10.598Z,38.30
2019-05-23T12:33:17.969Z,38.64
2019-05-23T12:35:25.078Z,39.03
2019-05-23T12:37:32.216Z,39.29
2019-05-23T12:39:39.419Z,39.24
2019-05-23T12:41:47.293Z,39.14
2019-05-23T12:43:54.698Z,39.41
2019-05-23T12:46:01.995Z,39.27
2019-05-23T12:48:16.598Z,39.19
2019-05-23T12:50:26.983Z,39.63
2019-05-23T12:52:34.883Z,38.76
2019-05-23T12:54:44.363Z,38.55
2019-05-23T12:56:52.888Z,38.55
2019-05-23T12:59:01.140Z,38.58
2019-05-23T13:01:10.139Z,38.52
2019-05-23T13:03:17.725Z,38.56
2019-05-23T13:05:28.553Z,38.50
2019-05-23T13:07:38.703Z,38.57
2019-05-23T13:09:46.868Z,38.80
2019-05-23T13:11:54.690Z,39.15
2019-05-23T13:14:02.659Z,38.79
2019-05-23T13:16:11.885Z,38.62
2019-05-23T13:18:19.757Z,38.49
2019-05-23T13:20:28.368Z,38.91
2019-05-23T13:22:36.335Z,39.08
2019-05-23T13:24:52.458Z,38.82
2019-05-23T13:26:53.638Z,38.91
2019-05-23T13:29:02.053Z,38.89
2019-05-23T13:31:10.460Z,38.87
2019-05-23T13:33:17.815Z,38.84
2019-05-23T13:35:25.867Z,38.95
2019-05-23T13:37:33.111Z,38.97
2019-05-23T13:39:39.966Z,38.76
2019-05-23T13:41:47.671Z,38.74
2019-05-23T13:43:55.566Z,38.99
2019-05-23T13:46:03.393Z,39.06
2019-05-23T13:48:11.262Z,39.09
2019-05-23T13:50:19.430Z,39.17
2019-05-23T13:52:26.663Z,39.11
2019-05-23T13:54:36.434Z,38.91
2019-05-23T13:56:47.504Z,38.85
2019-05-23T13:58:53.287Z,39.08
2019-05-23T14:01:01.474Z,39.07
2019-05-23T14:03:09.499Z,38.89
2019-05-23T14:05:19.501Z,38.89
2019-05-23T14:07:28.596Z,38.86
2019-05-23T14:09:36.697Z,38.79
2019-05-23T14:11:44.203Z,38.86
2019-05-23T14:13:59.553Z,38.81
2019-05-23T14:16:01.975Z,38.81
2019-05-23T14:18:09.923Z,38.86
2019-05-23T14:20:17.944Z,38.87
2019-05-23T14:22:25.362Z,38.84
2019-05-23T14:24:37.302Z,38.87
2019-05-23T14:26:48.286Z,38.72
2019-05-23T14:28:56.029Z,38.75
2019-05-23T14:31:12.530Z,38.65
2019-05-23T14:33:28.675Z,38.57
2019-05-23T14:35:37.656Z,38.64
2019-05-23T14:37:47.463Z,38.61
2019-05-23T14:40:01.457Z,38.66
2019-05-23T14:42:30.643Z,38.78
2019-05-23T14:45:09.730Z,38.72
2019-05-23T14:47:38.774Z,38.69
2019-05-23T14:49:53.016Z,38.58
2019-05-23T14:52:34.626Z,38.59
2019-05-23T14:54:47.763Z,38.54
2019-05-23T14:56:55.544Z,38.62
2019-05-23T14:59:02.908Z,38.58
2019-05-23T15:01:11.864Z,38.48
2019-05-23T15:03:19.294Z,38.41
2019-05-23T15:05:26.951Z,38.42
2019-05-23T15:07:35.303Z,38.44
2019-05-23T15:09:43.051Z,38.37
2019-05-23T15:11:56.968Z,38.35
2019-05-23T15:14:05.402Z,38.33
2019-05-23T15:16:13.206Z,38.28
2019-05-23T15:18:20.580Z,38.41
2019-05-23T15:20:28.234Z,38.30
2019-05-23T15:22:35.990Z,38.24
2019-05-23T15:24:43.975Z,38.20
2019-05-23T15:26:51.545Z,38.31
2019-05-23T15:28:58.840Z,38.38
2019-05-23T15:31:08.256Z,38.52
2019-05-23T15:33:15.468Z,38.29
2019-05-23T15:35:23.820Z,38.43
2019-05-23T15:37:31.695Z,38.39
2019-05-23T15:39:39.349Z,38.39
2019-05-23T15:41:46.632Z,38.30
2019-05-23T15:43:53.957Z,38.23
2019-05-23T15:46:01.133Z,38.34
2019-05-23T15:48:08.719Z,38.39
2019-05-23T15:50:18.226Z,38.36
2019-05-23T15:52:59.710Z,38.42
2019-05-23T15:55:15.221Z,38.22
2019-05-23T15:57:33.410Z,38.34
2019-05-23T15:59:59.356Z,38.20
2019-05-23T16:02:17.304Z,38.64
2019-05-23T16:04:24.898Z,39.10
2019-05-23T16:06:33.681Z,38.64
2019-05-23T16:08:41.140Z,38.67
2019-05-23T16:10:49.949Z,38.48
2019-05-23T16:12:57.954Z,38.45
2019-05-23T16:15:05.795Z,38.55
2019-05-23T16:17:13.723Z,38.26
2019-05-23T16:19:21.434Z,38.20
2019-05-23T16:21:30.541Z,38.21
2019-05-23T16:23:38.038Z,38.47
2019-05-23T16:25:45.376Z,38.13
2019-05-23T16:27:53.179Z,38.21
2019-05-23T16:30:00.256Z,38.22
2019-05-23T16:32:07.562Z,38.28
2019-05-23T16:34:14.674Z,38.08
2019-05-23T16:36:22.523Z,38.24
2019-05-23T16:38:29.749Z,38.16
2019-05-23T16:40:37.170Z,38.51
2019-05-23T16:42:45.378Z,38.48
2019-05-23T16:44:53.370Z,38.32
2019-05-23T16:47:13.515Z,38.20
2019-05-23T16:49:20.779Z,38.08
2019-05-23T16:51:28.001Z,38.04
2019-05-23T16:53:37.113Z,37.99
2019-05-23T16:55:57.508Z,37.95
2019-05-23T16:58:11.847Z,38.03
2019-05-23T17:00:38.105Z,38.05
2019-05-23T17:02:52.110Z,38.01
2019-05-23T17:05:18.265Z,37.98
2019-05-23T17:07:53.707Z,38.02
2019-05-23T17:10:14.626Z,38.01
2019-05-23T17:12:36.752Z,38.06
2019-05-23T17:14:52.061Z,38.27
2019-05-23T17:17:15.923Z,37.91
2019-05-23T17:19:48.248Z,37.87
2019-05-23T17:22:01.705Z,37.90
2019-05-23T17:24:25.897Z,37.93
2019-05-23T17:27:03.788Z,37.89
2019-05-23T17:29:24.466Z,37.99
2019-05-23T17:31:35.458Z,37.90
2019-05-23T17:33:42.942Z,37.94
2019-05-23T17:35:50.829Z,37.95
2019-05-23T17:37:58.113Z,37.84
2019-05-23T17:40:28.441Z,37.85
2019-05-23T17:42:56.528Z,37.91
2019-05-23T17:45:04.791Z,38.08
2019-05-23T17:47:12.040Z,38.28
2019-05-23T17:49:20.116Z,38.20
2019-05-23T17:51:27.867Z,38.38
2019-05-23T17:53:35.421Z,38.05
2019-05-23T17:55:42.683Z,38.09
2019-05-23T17:57:50.731Z,38.37
2019-05-23T17:59:59.277Z,38.47
2019-05-23T18:02:07.838Z,38.40
2019-05-23T18:04:15.870Z,38.25
2019-05-23T18:06:24.133Z,38.21
2019-05-23T18:08:32.312Z,38.07
2019-05-23T18:10:45.584Z,37.95
2019-05-23T18:12:49.643Z,38.10
2019-05-23T18:14:57.067Z,37.95
2019-05-23T18:17:06.849Z,38.63
2019-05-23T18:19:14.848Z,38.02
2019-05-23T18:21:22.260Z,38.10
2019-05-23T18:23:30.212Z,38.22
2019-05-23T18:25:37.870Z,38.08
2019-05-23T18:27:47.170Z,37.99
2019-05-23T18:29:55.581Z,38.39
2019-05-23T18:32:05.309Z,38.06
2019-05-23T18:34:14.842Z,38.43
2019-05-23T18:36:22.701Z,38.29
2019-05-23T18:38:31.228Z,38.23
2019-05-23T18:41:01.689Z,38.38
2019-05-23T18:42:54.812Z,38.54
2019-05-23T18:45:02.059Z,38.64
2019-05-23T18:47:14.734Z,38.80
2019-05-23T18:49:23.390Z,38.78
2019-05-23T18:51:31.484Z,38.69
2019-05-23T18:53:38.868Z,38.69
2019-05-23T18:55:46.208Z,38.54
2019-05-23T18:57:54.322Z,38.43
2019-05-23T19:00:01.922Z,38.43
2019-05-23T19:02:18.729Z,38.40
2019-05-23T19:04:25.968Z,38.32
2019-05-23T19:06:34.578Z,38.51
2019-05-23T19:08:43.852Z,38.18
2019-05-23T19:10:51.012Z,38.37
2019-05-23T19:13:01.203Z,38.28
2019-05-23T19:15:10.830Z,38.27
2019-05-23T19:17:19.169Z,38.35
2019-05-23T19:19:26.714Z,38.15
2019-05-23T19:21:35.034Z,38.09
2019-05-23T19:23:42.447Z,38.09
2019-05-23T19:25:50.525Z,38.36
2019-05-23T19:27:57.980Z,38.27
2019-05-23T19:30:06.167Z,38.62
2019-05-23T19:32:14.337Z,38.47
2019-05-23T19:34:21.818Z,38.15
2019-05-23T19:36:29.222Z,38.30
2019-05-23T19:38:38.144Z,38.22
2019-05-23T19:40:46.455Z,38.37
2019-05-23T19:42:54.044Z,38.19
2019-05-23T19:45:02.340Z,38.65
2019-05-23T19:47:11.139Z,38.10
2019-05-23T19:49:19.931Z,38.41
2019-05-23T19:51:27.438Z,38.51
2019-05-23T19:53:56.430Z,38.09
2019-05-23T19:56:04.489Z,37.92
2019-05-23T19:58:12.044Z,38.45
2019-05-23T20:00:21.274Z,38.26
2019-05-23T20:02:42.540Z,38.18
2019-05-23T20:05:00.268Z,38.40
2019-05-23T20:07:08.464Z,38.26
2019-05-23T20:09:19.915Z,38.29
2019-05-23T20:11:27.341Z,38.25
2019-05-23T20:13:34.801Z,38.31
2019-05-23T20:15:45.626Z,38.24
2019-05-23T20:17:52.210Z,38.16
2019-05-23T20:20:00.158Z,38.20
2019-05-23T20:22:24.237Z,38.36
2019-05-23T20:24:57.243Z,37.89
2019-05-23T20:27:06.158Z,38.22
2019-05-23T20:29:13.667Z,38.06
2019-05-23T20:31:21.199Z,37.96
2019-05-23T20:33:28.698Z,38.04
2019-05-23T20:35:35.969Z,37.71
2019-05-23T20:37:43.875Z,38.03
2019-05-23T20:39:51.172Z,37.94
2019-05-23T20:42:10.940Z,37.87
2019-05-23T20:44:07.455Z,38.05
2019-05-23T20:46:15.908Z,37.98
2019-05-23T20:48:24.318Z,37.99
2019-05-23T20:50:32.594Z,37.99
2019-05-23T20:52:39.948Z,37.98
2019-05-23T20:54:47.984Z,37.70
2019-05-23T20:56:55.484Z,37.77
2019-05-23T20:59:03.673Z,37.82
2019-05-23T21:01:29.261Z,37.88
2019-05-23T21:03:37.145Z,38.19
2019-05-23T21:05:44.315Z,38.02
2019-05-23T21:07:51.692Z,37.35
2019-05-23T21:10:00.278Z,37.33
2019-05-23T21:12:08.142Z,37.99
2019-05-23T21:14:17.273Z,37.87
2019-05-23T21:16:24.691Z,38.03
2019-05-23T21:18:32.703Z,37.75
2019-05-23T21:20:41.760Z,37.93
2019-05-23T21:22:49.146Z,37.91
2019-05-23T21:24:56.491Z,38.00
2019-05-23T21:27:03.730Z,38.15
2019-05-23T21:29:11.746Z,38.27
2019-05-23T21:31:23.869Z,38.24
2019-05-23T21:33:31.848Z,38.28
2019-05-23T21:35:40.168Z,38.25
2019-05-23T21:37:47.731Z,38.30
2019-05-23T21:39:55.651Z,38.27
2019-05-23T21:42:03.104Z,38.18
2019-05-23T21:44:10.547Z,38.26
2019-05-23T21:46:18.257Z,38.45
2019-05-23T21:48:25.721Z,38.65
2019-05-23T21:50:33.480Z,38.58
2019-05-23T21:52:41.811Z,38.64
2019-05-23T21:54:49.443Z,38.36
2019-05-23T21:56:59.323Z,38.34
2019-05-23T21:59:06.813Z,38.46
2019-05-23T22:01:34.597Z,38.33
2019-05-23T22:03:43.735Z,38.14
2019-05-23T22:05:51.155Z,38.11
2019-05-23T22:08:00.051Z,37.48
2019-05-23T22:10:08.513Z,37.66
2019-05-23T22:12:16.533Z,37.72
2019-05-23T22:14:24.818Z,37.71
2019-05-23T22:16:32.130Z,37.49
2019-05-23T22:18:39.591Z,37.71
2019-05-23T22:20:47.289Z,37.35
2019-05-23T22:22:54.365Z,37.76
2019-05-23T22:25:02.854Z,37.57
2019-05-23T22:27:11.121Z,37.30
2019-05-23T22:29:18.410Z,37.88
2019-05-23T22:31:26.657Z,37.26
2019-05-23T22:33:37.504Z,37.37
2019-05-23T22:35:44.844Z,37.71
2019-05-23T22:38:07.407Z,38.00
2019-05-23T22:40:14.709Z,38.06
2019-05-23T22:42:22.260Z,37.66
2019-05-23T22:44:29.588Z,37.75
2019-05-23T22:46:37.203Z,38.01
2019-05-23T22:48:44.355Z,38.13
2019-05-23T22:50:51.644Z,38.21
2019-05-23T22:52:59.419Z,38.38
2019-05-23T22:55:06.727Z,38.29
2019-05-23T22:57:14.409Z,38.70
2019-05-23T22:59:22.442Z,38.17
2019-05-23T23:01:30.914Z,37.98
2019-05-23T23:03:38.328Z,38.24
2019-05-23T23:05:45.632Z,37.78
2019-05-23T23:07:53.302Z,37.43
2019-05-23T23:10:01.167Z,37.52
2019-05-23T23:12:08.476Z,37.71
2019-05-23T23:14:15.682Z,37.64
2019-05-23T23:16:23.027Z,37.36
2019-05-23T23:18:30.124Z,37.27
2019-05-23T23:20:40.404Z,37.16
2019-05-23T23:22:49.349Z,38.06
2019-05-23T23:24:58.198Z,37.63
2019-05-23T23:27:07.537Z,36.91
2019-05-23T23:29:14.920Z,36.20
2019-05-23T23:32:13.964Z,36.71
2019-05-23T23:34:21.205Z,36.59
2019-05-23T23:36:29.246Z,35.97
2019-05-23T23:38:36.522Z,35.79
2019-05-23T23:40:44.144Z,35.81
2019-05-23T23:42:51.312Z,35.53
2019-05-23T23:45:16.392Z,35.24
2019-05-23T23:47:41.957Z,35.12
2019-05-23T23:50:07.133Z,34.81
2019-05-23T23:52:32.424Z,35.02
2019-05-23T23:54:57.933Z,35.09
2019-05-23T23:57:24.194Z,34.76
2019-05-23T23:59:31.638Z,34.64
